sensor_id;sensor_type;location;lat;lon;timestamp;temperature;humidity
12053;DHT22;6087;48.982;12.064;2023-04-06T00:01:45;3.60;1.00
12053;DHT22;6087;48.982;12.064;2023-04-06T00:04:12;3.60;1.00
12053;DHT22;6087;48.982;12.064;2023-04-06T00:06:39;3.50;1.00
12053;DHT22;6087;48.982;12.064;2023-04-06T00:09:08;3.50;1.00
12053;DHT22;6087;48.982;12.064;2023-04-06T00:11:35;3.50;1.00
12053;DHT22;6087;48.982;12.064;2023-04-06T00:14:02;3.50;1.00
12053;DHT22;6087;48.982;12.064;2023-04-06T00:16:29;3.40;1.00
12053;DHT22;6087;48.982;12.064;2023-04-06T00:18:56;3.40;1.00
12053;DHT22;6087;48.982;12.064;2023-04-06T00:21:23;3.40;1.00
12053;DHT22;6087;48.982;12.064;2023-04-06T00:23:51;3.30;1.00
12053;DHT22;6087;48.982;12.064;2023-04-06T00:26:19;3.30;1.00
12053;DHT22;6087;48.982;12.064;2023-04-06T00:28:46;3.20;1.00
12053;DHT22;6087;48.982;12.064;2023-04-06T00:31:15;3.20;1.00
12053;DHT22;6087;48.982;12.064;2023-04-06T00:33:42;3.20;1.00
12053;DHT22;6087;48.982;12.064;2023-04-06T00:36:09;3.10;1.00
12053;DHT22;6087;48.982;12.064;2023-04-06T00:38:36;3.10;1.00
12053;DHT22;6087;48.982;12.064;2023-04-06T00:41:04;3.10;1.00
12053;DHT22;6087;48.982;12.064;2023-04-06T00:43:33;3.10;1.00
12053;DHT22;6087;48.982;12.064;2023-04-06T00:46:00;3.10;1.00
12053;DHT22;6087;48.982;12.064;2023-04-06T00:48:27;3.10;1.00
12053;DHT22;6087;48.982;12.064;2023-04-06T00:50:58;3.00;1.00
12053;DHT22;6087;48.982;12.064;2023-04-06T00:53:30;3.00;1.00
12053;DHT22;6087;48.982;12.064;2023-04-06T00:56:00;3.00;1.00
12053;DHT22;6087;48.982;12.064;2023-04-06T00:58:29;2.90;1.00
12053;DHT22;6087;48.982;12.064;2023-04-06T01:01:03;2.90;1.00
12053;DHT22;6087;48.982;12.064;2023-04-06T01:03:30;2.90;1.00
12053;DHT22;6087;48.982;12.064;2023-04-06T01:05:57;2.90;1.00
12053;DHT22;6087;48.982;12.064;2023-04-06T01:08:25;2.90;1.00
12053;DHT22;6087;48.982;12.064;2023-04-06T01:10:59;2.80;1.00
12053;DHT22;6087;48.982;12.064;2023-04-06T01:13:27;2.80;1.00
12053;DHT22;6087;48.982;12.064;2023-04-06T01:15:54;2.80;1.00
12053;DHT22;6087;48.982;12.064;2023-04-06T01:18:27;2.80;1.00
12053;DHT22;6087;48.982;12.064;2023-04-06T01:20:54;2.80;1.00
12053;DHT22;6087;48.982;12.064;2023-04-06T01:23:22;2.80;1.00
12053;DHT22;6087;48.982;12.064;2023-04-06T01:25:49;2.80;1.00
12053;DHT22;6087;48.982;12.064;2023-04-06T01:28:19;2.80;1.00
12053;DHT22;6087;48.982;12.064;2023-04-06T01:30:46;2.70;1.00
12053;DHT22;6087;48.982;12.064;2023-04-06T01:33:13;2.70;1.00
12053;DHT22;6087;48.982;12.064;2023-04-06T01:35:40;2.70;1.00
12053;DHT22;6087;48.982;12.064;2023-04-06T01:38:07;2.70;1.00
12053;DHT22;6087;48.982;12.064;2023-04-06T01:40:36;2.70;1.00
12053;DHT22;6087;48.982;12.064;2023-04-06T01:43:02;2.80;1.00
12053;DHT22;6087;48.982;12.064;2023-04-06T01:45:33;2.80;1.00
12053;DHT22;6087;48.982;12.064;2023-04-06T01:48:00;2.80;1.00
12053;DHT22;6087;48.982;12.064;2023-04-06T01:50:26;2.70;1.00
12053;DHT22;6087;48.982;12.064;2023-04-06T01:52:53;2.70;1.00
12053;DHT22;6087;48.982;12.064;2023-04-06T01:55:20;2.60;1.00
12053;DHT22;6087;48.982;12.064;2023-04-06T01:57:49;2.60;1.00
12053;DHT22;6087;48.982;12.064;2023-04-06T02:00:16;2.60;1.00
12053;DHT22;6087;48.982;12.064;2023-04-06T02:02:43;2.50;1.00
12053;DHT22;6087;48.982;12.064;2023-04-06T02:05:10;2.50;1.00
12053;DHT22;6087;48.982;12.064;2023-04-06T02:07:37;2.50;1.00
12053;DHT22;6087;48.982;12.064;2023-04-06T02:10:10;2.40;1.00
12053;DHT22;6087;48.982;12.064;2023-04-06T02:12:37;2.40;1.00
12053;DHT22;6087;48.982;12.064;2023-04-06T02:15:06;2.40;1.00
12053;DHT22;6087;48.982;12.064;2023-04-06T02:17:33;2.40;1.00
12053;DHT22;6087;48.982;12.064;2023-04-06T02:20:00;2.40;1.00
12053;DHT22;6087;48.982;12.064;2023-04-06T02:22:27;2.40;1.00
12053;DHT22;6087;48.982;12.064;2023-04-06T02:24:54;2.40;1.00
12053;DHT22;6087;48.982;12.064;2023-04-06T02:27:21;2.40;1.00
12053;DHT22;6087;48.982;12.064;2023-04-06T02:29:48;2.40;1.00
12053;DHT22;6087;48.982;12.064;2023-04-06T02:32:16;2.40;1.00
12053;DHT22;6087;48.982;12.064;2023-04-06T02:34:43;2.40;1.00
12053;DHT22;6087;48.982;12.064;2023-04-06T02:37:10;2.50;1.00
12053;DHT22;6087;48.982;12.064;2023-04-06T02:39:37;2.50;1.00
12053;DHT22;6087;48.982;12.064;2023-04-06T02:42:04;2.50;1.00
12053;DHT22;6087;48.982;12.064;2023-04-06T02:44:31;2.50;1.00
12053;DHT22;6087;48.982;12.064;2023-04-06T02:46:58;2.50;1.00
12053;DHT22;6087;48.982;12.064;2023-04-06T02:49:26;2.50;1.00
12053;DHT22;6087;48.982;12.064;2023-04-06T02:51:53;2.50;1.00
12053;DHT22;6087;48.982;12.064;2023-04-06T02:54:20;2.50;1.00
12053;DHT22;6087;48.982;12.064;2023-04-06T02:56:47;2.50;1.00
12053;DHT22;6087;48.982;12.064;2023-04-06T02:59:14;2.50;1.00
12053;DHT22;6087;48.982;12.064;2023-04-06T03:01:41;2.50;1.00
12053;DHT22;6087;48.982;12.064;2023-04-06T03:04:08;2.50;1.00
12053;DHT22;6087;48.982;12.064;2023-04-06T03:06:37;2.50;1.00
12053;DHT22;6087;48.982;12.064;2023-04-06T03:09:05;2.50;1.00
12053;DHT22;6087;48.982;12.064;2023-04-06T03:11:32;2.40;1.00
12053;DHT22;6087;48.982;12.064;2023-04-06T03:14:00;2.40;1.00
12053;DHT22;6087;48.982;12.064;2023-04-06T03:16:32;2.40;1.00
12053;DHT22;6087;48.982;12.064;2023-04-06T03:18:58;2.40;1.00
12053;DHT22;6087;48.982;12.064;2023-04-06T03:21:25;2.40;1.00
12053;DHT22;6087;48.982;12.064;2023-04-06T03:23:57;2.40;1.00
12053;DHT22;6087;48.982;12.064;2023-04-06T03:26:24;2.30;1.00
12053;DHT22;6087;48.982;12.064;2023-04-06T03:28:51;2.30;1.00
12053;DHT22;6087;48.982;12.064;2023-04-06T03:31:18;2.30;1.00
12053;DHT22;6087;48.982;12.064;2023-04-06T03:33:45;2.30;1.00
12053;DHT22;6087;48.982;12.064;2023-04-06T03:36:12;2.30;1.00
12053;DHT22;6087;48.982;12.064;2023-04-06T03:38:38;2.30;1.00
12053;DHT22;6087;48.982;12.064;2023-04-06T03:41:07;2.20;1.00
12053;DHT22;6087;48.982;12.064;2023-04-06T03:43:34;2.20;1.00
12053;DHT22;6087;48.982;12.064;2023-04-06T03:46:01;2.20;1.00
12053;DHT22;6087;48.982;12.064;2023-04-06T03:48:28;2.20;1.00
12053;DHT22;6087;48.982;12.064;2023-04-06T03:50:55;2.10;1.00
12053;DHT22;6087;48.982;12.064;2023-04-06T03:53:22;2.00;1.00
12053;DHT22;6087;48.982;12.064;2023-04-06T03:55:48;2.00;1.00
12053;DHT22;6087;48.982;12.064;2023-04-06T03:58:17;2.00;1.00
12053;DHT22;6087;48.982;12.064;2023-04-06T04:00:44;2.00;1.00
12053;DHT22;6087;48.982;12.064;2023-04-06T04:03:11;2.00;1.00
12053;DHT22;6087;48.982;12.064;2023-04-06T04:05:38;2.00;1.00
12053;DHT22;6087;48.982;12.064;2023-04-06T04:08:05;2.00;1.00
12053;DHT22;6087;48.982;12.064;2023-04-06T04:10:32;2.00;1.00
12053;DHT22;6087;48.982;12.064;2023-04-06T04:12:59;2.00;1.00
12053;DHT22;6087;48.982;12.064;2023-04-06T04:15:27;2.00;1.00
12053;DHT22;6087;48.982;12.064;2023-04-06T04:17:54;2.00;1.00
12053;DHT22;6087;48.982;12.064;2023-04-06T04:20:21;2.00;1.00
12053;DHT22;6087;48.982;12.064;2023-04-06T04:22:48;1.90;1.00
12053;DHT22;6087;48.982;12.064;2023-04-06T04:25:18;1.90;1.00
12053;DHT22;6087;48.982;12.064;2023-04-06T04:27:48;1.90;1.00
12053;DHT22;6087;48.982;12.064;2023-04-06T04:30:15;1.90;1.00
12053;DHT22;6087;48.982;12.064;2023-04-06T04:32:44;1.90;1.00
12053;DHT22;6087;48.982;12.064;2023-04-06T04:35:11;1.90;1.00
12053;DHT22;6087;48.982;12.064;2023-04-06T04:37:38;1.90;1.00
12053;DHT22;6087;48.982;12.064;2023-04-06T04:40:07;1.90;1.00
12053;DHT22;6087;48.982;12.064;2023-04-06T04:42:36;1.90;1.00
12053;DHT22;6087;48.982;12.064;2023-04-06T04:45:04;1.90;1.00
12053;DHT22;6087;48.982;12.064;2023-04-06T04:47:32;1.80;1.00
12053;DHT22;6087;48.982;12.064;2023-04-06T04:50:00;1.80;1.00
12053;DHT22;6087;48.982;12.064;2023-04-06T04:52:27;1.80;1.00
12053;DHT22;6087;48.982;12.064;2023-04-06T04:54:54;1.80;1.00
12053;DHT22;6087;48.982;12.064;2023-04-06T04:57:21;1.80;1.00
12053;DHT22;6087;48.982;12.064;2023-04-06T04:59:48;1.80;1.00
12053;DHT22;6087;48.982;12.064;2023-04-06T05:02:16;1.80;1.00
12053;DHT22;6087;48.982;12.064;2023-04-06T05:04:43;1.80;1.00
12053;DHT22;6087;48.982;12.064;2023-04-06T05:07:11;1.80;1.00
12053;DHT22;6087;48.982;12.064;2023-04-06T05:09:38;1.70;1.00
12053;DHT22;6087;48.982;12.064;2023-04-06T05:12:06;1.70;1.00
12053;DHT22;6087;48.982;12.064;2023-04-06T05:14:33;1.70;1.00
12053;DHT22;6087;48.982;12.064;2023-04-06T05:17:00;1.70;1.00
12053;DHT22;6087;48.982;12.064;2023-04-06T05:19:27;1.70;1.00
12053;DHT22;6087;48.982;12.064;2023-04-06T05:21:53;1.70;1.00
12053;DHT22;6087;48.982;12.064;2023-04-06T05:24:22;1.60;1.80
12053;DHT22;6087;48.982;12.064;2023-04-06T05:26:49;1.70;2.00
12053;DHT22;6087;48.982;12.064;2023-04-06T05:29:16;1.70;2.40
12053;DHT22;6087;48.982;12.064;2023-04-06T05:31:50;1.70;2.70
12053;DHT22;6087;48.982;12.064;2023-04-06T05:34:17;1.70;3.40
12053;DHT22;6087;48.982;12.064;2023-04-06T05:36:44;1.70;3.90
12053;DHT22;6087;48.982;12.064;2023-04-06T05:39:12;1.70;4.70
12053;DHT22;6087;48.982;12.064;2023-04-06T05:41:40;1.70;5.90
12053;DHT22;6087;48.982;12.064;2023-04-06T05:44:07;1.70;6.10
12053;DHT22;6087;48.982;12.064;2023-04-06T05:46:34;1.80;6.50
12053;DHT22;6087;48.982;12.064;2023-04-06T05:49:01;1.80;7.30
12053;DHT22;6087;48.982;12.064;2023-04-06T05:51:28;1.80;8.00
12053;DHT22;6087;48.982;12.064;2023-04-06T05:53:55;1.80;8.80
12053;DHT22;6087;48.982;12.064;2023-04-06T05:56:23;1.90;9.20
12053;DHT22;6087;48.982;12.064;2023-04-06T05:58:52;1.90;10.10
12053;DHT22;6087;48.982;12.064;2023-04-06T06:01:19;1.90;10.50
12053;DHT22;6087;48.982;12.064;2023-04-06T06:03:54;2.00;10.80
12053;DHT22;6087;48.982;12.064;2023-04-06T06:06:21;2.00;10.80
12053;DHT22;6087;48.982;12.064;2023-04-06T06:08:54;2.10;11.20
12053;DHT22;6087;48.982;12.064;2023-04-06T06:11:24;2.10;10.80
12053;DHT22;6087;48.982;12.064;2023-04-06T06:13:52;2.10;11.40
12053;DHT22;6087;48.982;12.064;2023-04-06T06:16:19;2.20;12.40
12053;DHT22;6087;48.982;12.064;2023-04-06T06:18:46;2.20;12.50
12053;DHT22;6087;48.982;12.064;2023-04-06T06:21:13;2.30;12.50
12053;DHT22;6087;48.982;12.064;2023-04-06T06:23:41;2.40;12.50
12053;DHT22;6087;48.982;12.064;2023-04-06T06:26:08;2.40;11.50
12053;DHT22;6087;48.982;12.064;2023-04-06T06:28:35;2.50;11.80
12053;DHT22;6087;48.982;12.064;2023-04-06T06:31:03;2.50;11.30
12053;DHT22;6087;48.982;12.064;2023-04-06T06:33:30;2.60;11.00
12053;DHT22;6087;48.982;12.064;2023-04-06T06:35:57;2.70;10.20
12053;DHT22;6087;48.982;12.064;2023-04-06T06:38:24;2.70;9.90
12053;DHT22;6087;48.982;12.064;2023-04-06T06:40:51;2.80;8.70
12053;DHT22;6087;48.982;12.064;2023-04-06T06:43:18;2.80;8.00
12053;DHT22;6087;48.982;12.064;2023-04-06T06:45:45;2.90;7.90
12053;DHT22;6087;48.982;12.064;2023-04-06T06:48:14;3.00;8.40
12053;DHT22;6087;48.982;12.064;2023-04-06T06:50:41;3.00;6.80
12053;DHT22;6087;48.982;12.064;2023-04-06T06:53:10;3.10;6.60
12053;DHT22;6087;48.982;12.064;2023-04-06T06:55:43;3.10;6.80
12053;DHT22;6087;48.982;12.064;2023-04-06T06:58:10;3.20;6.40
12053;DHT22;6087;48.982;12.064;2023-04-06T07:00:37;3.30;6.90
12053;DHT22;6087;48.982;12.064;2023-04-06T07:03:04;3.30;5.70
12053;DHT22;6087;48.982;12.064;2023-04-06T07:05:33;3.40;6.10
12053;DHT22;6087;48.982;12.064;2023-04-06T07:08:00;3.40;6.00
12053;DHT22;6087;48.982;12.064;2023-04-06T07:10:27;3.50;4.50
12053;DHT22;6087;48.982;12.064;2023-04-06T07:12:54;3.50;5.40
12053;DHT22;6087;48.982;12.064;2023-04-06T07:15:21;3.60;4.90
12053;DHT22;6087;48.982;12.064;2023-04-06T07:17:48;3.70;5.40
12053;DHT22;6087;48.982;12.064;2023-04-06T07:20:15;3.70;5.80
12053;DHT22;6087;48.982;12.064;2023-04-06T07:22:44;3.70;4.30
12053;DHT22;6087;48.982;12.064;2023-04-06T07:25:11;3.80;3.50
12053;DHT22;6087;48.982;12.064;2023-04-06T07:27:38;3.80;3.50
12053;DHT22;6087;48.982;12.064;2023-04-06T07:30:06;3.90;3.60
12053;DHT22;6087;48.982;12.064;2023-04-06T07:32:33;3.90;3.60
12053;DHT22;6087;48.982;12.064;2023-04-06T07:35:01;4.00;5.50
12053;DHT22;6087;48.982;12.064;2023-04-06T07:37:28;4.10;5.10
12053;DHT22;6087;48.982;12.064;2023-04-06T07:39:56;4.10;5.60
12053;DHT22;6087;48.982;12.064;2023-04-06T07:42:23;4.20;4.50
12053;DHT22;6087;48.982;12.064;2023-04-06T07:44:50;4.20;5.40
12053;DHT22;6087;48.982;12.064;2023-04-06T07:47:17;4.30;3.10
12053;DHT22;6087;48.982;12.064;2023-04-06T07:49:44;4.30;2.40
12053;DHT22;6087;48.982;12.064;2023-04-06T07:52:11;4.30;2.20
12053;DHT22;6087;48.982;12.064;2023-04-06T07:54:40;4.40;2.90
12053;DHT22;6087;48.982;12.064;2023-04-06T07:57:08;4.40;1.80
12053;DHT22;6087;48.982;12.064;2023-04-06T07:59:35;4.50;1.50
12053;DHT22;6087;48.982;12.064;2023-04-06T08:02:02;4.50;1.60
12053;DHT22;6087;48.982;12.064;2023-04-06T08:04:29;4.60;1.20
12053;DHT22;6087;48.982;12.064;2023-04-06T08:06:58;4.60;2.40
12053;DHT22;6087;48.982;12.064;2023-04-06T08:09:25;4.70;1.80
12053;DHT22;6087;48.982;12.064;2023-04-06T08:11:53;4.70;1.10
12053;DHT22;6087;48.982;12.064;2023-04-06T08:14:21;4.70;1.80
12053;DHT22;6087;48.982;12.064;2023-04-06T08:16:48;4.70;2.90
12053;DHT22;6087;48.982;12.064;2023-04-06T08:19:18;4.80;3.80
12053;DHT22;6087;48.982;12.064;2023-04-06T08:21:45;4.80;3.10
12053;DHT22;6087;48.982;12.064;2023-04-06T08:24:12;4.90;3.30
12053;DHT22;6087;48.982;12.064;2023-04-06T08:26:48;4.90;2.40
12053;DHT22;6087;48.982;12.064;2023-04-06T08:29:16;4.90;2.60
12053;DHT22;6087;48.982;12.064;2023-04-06T08:31:44;4.90;2.00
12053;DHT22;6087;48.982;12.064;2023-04-06T08:34:20;5.00;2.00
12053;DHT22;6087;48.982;12.064;2023-04-06T08:36:51;5.00;1.20
12053;DHT22;6087;48.982;12.064;2023-04-06T08:39:18;5.00;2.50
12053;DHT22;6087;48.982;12.064;2023-04-06T08:41:51;5.10;3.50
12053;DHT22;6087;48.982;12.064;2023-04-06T08:44:18;5.10;1.60
12053;DHT22;6087;48.982;12.064;2023-04-06T08:46:52;5.20;1.00
12053;DHT22;6087;48.982;12.064;2023-04-06T08:49:19;5.20;1.00
12053;DHT22;6087;48.982;12.064;2023-04-06T08:51:47;5.20;1.00
12053;DHT22;6087;48.982;12.064;2023-04-06T08:54:14;5.30;1.00
12053;DHT22;6087;48.982;12.064;2023-04-06T08:56:41;5.40;1.00
12053;DHT22;6087;48.982;12.064;2023-04-06T08:59:09;5.40;1.00
12053;DHT22;6087;48.982;12.064;2023-04-06T09:01:39;5.40;1.00
12053;DHT22;6087;48.982;12.064;2023-04-06T09:04:08;5.50;1.00
12053;DHT22;6087;48.982;12.064;2023-04-06T09:06:36;5.50;1.00
12053;DHT22;6087;48.982;12.064;2023-04-06T09:09:04;5.50;1.00
12053;DHT22;6087;48.982;12.064;2023-04-06T09:11:42;5.60;1.00
12053;DHT22;6087;48.982;12.064;2023-04-06T09:14:09;5.60;1.00
12053;DHT22;6087;48.982;12.064;2023-04-06T09:16:39;5.70;1.00
12053;DHT22;6087;48.982;12.064;2023-04-06T09:19:09;5.70;1.00
12053;DHT22;6087;48.982;12.064;2023-04-06T09:21:36;5.80;1.00
12053;DHT22;6087;48.982;12.064;2023-04-06T09:24:07;5.90;1.00
12053;DHT22;6087;48.982;12.064;2023-04-06T09:26:45;5.90;1.00
12053;DHT22;6087;48.982;12.064;2023-04-06T09:29:22;5.90;1.00
12053;DHT22;6087;48.982;12.064;2023-04-06T09:31:50;6.00;1.00
12053;DHT22;6087;48.982;12.064;2023-04-06T09:34:24;6.00;1.00
12053;DHT22;6087;48.982;12.064;2023-04-06T09:36:53;6.10;1.00
12053;DHT22;6087;48.982;12.064;2023-04-06T09:39:21;6.10;1.00
12053;DHT22;6087;48.982;12.064;2023-04-06T09:41:53;6.10;1.00
12053;DHT22;6087;48.982;12.064;2023-04-06T09:44:23;6.10;1.00
12053;DHT22;6087;48.982;12.064;2023-04-06T09:46:53;6.20;1.00
12053;DHT22;6087;48.982;12.064;2023-04-06T09:49:21;6.20;1.00
12053;DHT22;6087;48.982;12.064;2023-04-06T09:51:55;6.20;1.00
12053;DHT22;6087;48.982;12.064;2023-04-06T09:54:23;6.30;1.00
12053;DHT22;6087;48.982;12.064;2023-04-06T09:56:56;6.30;1.00
12053;DHT22;6087;48.982;12.064;2023-04-06T09:59:40;6.40;1.00
12053;DHT22;6087;48.982;12.064;2023-04-06T10:02:18;6.40;1.00
12053;DHT22;6087;48.982;12.064;2023-04-06T10:04:53;6.50;1.00
12053;DHT22;6087;48.982;12.064;2023-04-06T10:07:24;6.50;1.00
12053;DHT22;6087;48.982;12.064;2023-04-06T10:09:53;6.60;1.00
12053;DHT22;6087;48.982;12.064;2023-04-06T10:12:20;6.60;1.00
12053;DHT22;6087;48.982;12.064;2023-04-06T10:14:48;6.70;1.00
12053;DHT22;6087;48.982;12.064;2023-04-06T10:17:15;6.70;1.00
12053;DHT22;6087;48.982;12.064;2023-04-06T10:19:49;6.80;1.00
12053;DHT22;6087;48.982;12.064;2023-04-06T10:22:24;6.80;1.00
12053;DHT22;6087;48.982;12.064;2023-04-06T10:24:53;6.90;1.00
12053;DHT22;6087;48.982;12.064;2023-04-06T10:27:27;7.00;1.00
12053;DHT22;6087;48.982;12.064;2023-04-06T10:30:01;7.00;1.00
12053;DHT22;6087;48.982;12.064;2023-04-06T10:32:33;7.00;1.00
12053;DHT22;6087;48.982;12.064;2023-04-06T10:35:08;7.00;1.00
12053;DHT22;6087;48.982;12.064;2023-04-06T10:37:50;7.10;1.00
12053;DHT22;6087;48.982;12.064;2023-04-06T10:40:23;7.20;1.00
12053;DHT22;6087;48.982;12.064;2023-04-06T10:42:51;7.30;1.00
12053;DHT22;6087;48.982;12.064;2023-04-06T10:45:19;7.40;1.00
12053;DHT22;6087;48.982;12.064;2023-04-06T10:47:47;7.50;1.00
12053;DHT22;6087;48.982;12.064;2023-04-06T10:50:15;7.50;1.00
12053;DHT22;6087;48.982;12.064;2023-04-06T10:52:44;7.60;1.00
12053;DHT22;6087;48.982;12.064;2023-04-06T10:55:13;7.60;1.00
12053;DHT22;6087;48.982;12.064;2023-04-06T10:57:40;7.70;1.00
12053;DHT22;6087;48.982;12.064;2023-04-06T11:00:08;7.70;1.00
12053;DHT22;6087;48.982;12.064;2023-04-06T11:02:36;7.70;1.00
12053;DHT22;6087;48.982;12.064;2023-04-06T11:05:03;7.90;1.00
12053;DHT22;6087;48.982;12.064;2023-04-06T11:07:30;7.90;1.00
12053;DHT22;6087;48.982;12.064;2023-04-06T11:09:57;8.00;1.00
12053;DHT22;6087;48.982;12.064;2023-04-06T11:12:27;8.00;1.00
12053;DHT22;6087;48.982;12.064;2023-04-06T11:15:00;8.10;1.00
12053;DHT22;6087;48.982;12.064;2023-04-06T11:17:30;8.30;1.00
12053;DHT22;6087;48.982;12.064;2023-04-06T11:19:58;8.40;1.00
12053;DHT22;6087;48.982;12.064;2023-04-06T11:22:25;8.40;1.00
12053;DHT22;6087;48.982;12.064;2023-04-06T11:24:52;8.60;1.00
12053;DHT22;6087;48.982;12.064;2023-04-06T11:27:20;8.70;1.00
12053;DHT22;6087;48.982;12.064;2023-04-06T11:29:49;8.70;1.00
12053;DHT22;6087;48.982;12.064;2023-04-06T11:32:21;8.90;1.00
12053;DHT22;6087;48.982;12.064;2023-04-06T11:34:49;9.00;1.00
12053;DHT22;6087;48.982;12.064;2023-04-06T11:37:16;9.00;1.00
12053;DHT22;6087;48.982;12.064;2023-04-06T11:39:47;9.10;1.00
12053;DHT22;6087;48.982;12.064;2023-04-06T11:42:28;9.20;1.00
12053;DHT22;6087;48.982;12.064;2023-04-06T11:44:58;9.40;1.00
12053;DHT22;6087;48.982;12.064;2023-04-06T11:47:29;9.40;1.00
12053;DHT22;6087;48.982;12.064;2023-04-06T11:50:04;9.60;1.00
12053;DHT22;6087;48.982;12.064;2023-04-06T11:52:34;9.70;1.00
12053;DHT22;6087;48.982;12.064;2023-04-06T11:55:11;9.90;1.00
12053;DHT22;6087;48.982;12.064;2023-04-06T11:57:40;10.10;1.00
12053;DHT22;6087;48.982;12.064;2023-04-06T12:00:10;10.30;1.00
12053;DHT22;6087;48.982;12.064;2023-04-06T12:02:37;10.40;1.00
12053;DHT22;6087;48.982;12.064;2023-04-06T12:05:08;10.60;1.00
12053;DHT22;6087;48.982;12.064;2023-04-06T12:07:38;10.80;1.00
12053;DHT22;6087;48.982;12.064;2023-04-06T12:10:06;11.00;1.00
12053;DHT22;6087;48.982;12.064;2023-04-06T12:12:33;11.10;1.00
12053;DHT22;6087;48.982;12.064;2023-04-06T12:15:00;11.20;1.00
12053;DHT22;6087;48.982;12.064;2023-04-06T12:17:28;11.40;1.00
12053;DHT22;6087;48.982;12.064;2023-04-06T12:19:55;11.50;1.00
12053;DHT22;6087;48.982;12.064;2023-04-06T12:22:25;11.40;1.00
12053;DHT22;6087;48.982;12.064;2023-04-06T12:24:52;11.50;1.00
12053;DHT22;6087;48.982;12.064;2023-04-06T12:27:21;11.50;1.00
12053;DHT22;6087;48.982;12.064;2023-04-06T12:29:48;11.30;1.00
12053;DHT22;6087;48.982;12.064;2023-04-06T12:32:18;11.30;1.00
12053;DHT22;6087;48.982;12.064;2023-04-06T12:34:47;11.40;1.00
12053;DHT22;6087;48.982;12.064;2023-04-06T12:37:14;11.60;1.00
12053;DHT22;6087;48.982;12.064;2023-04-06T12:39:41;11.90;1.00
12053;DHT22;6087;48.982;12.064;2023-04-06T12:42:09;12.20;1.00
12053;DHT22;6087;48.982;12.064;2023-04-06T12:44:38;12.40;1.00
12053;DHT22;6087;48.982;12.064;2023-04-06T12:47:05;12.60;1.00
12053;DHT22;6087;48.982;12.064;2023-04-06T12:49:32;12.90;1.00
12053;DHT22;6087;48.982;12.064;2023-04-06T12:52:02;13.10;1.00
12053;DHT22;6087;48.982;12.064;2023-04-06T12:54:28;13.30;1.00
12053;DHT22;6087;48.982;12.064;2023-04-06T12:56:55;13.60;1.00
12053;DHT22;6087;48.982;12.064;2023-04-06T12:59:23;13.80;1.00
12053;DHT22;6087;48.982;12.064;2023-04-06T13:01:50;14.00;1.00
12053;DHT22;6087;48.982;12.064;2023-04-06T13:04:18;14.10;1.00
12053;DHT22;6087;48.982;12.064;2023-04-06T13:06:45;14.20;1.00
12053;DHT22;6087;48.982;12.064;2023-04-06T13:09:13;14.40;1.00
12053;DHT22;6087;48.982;12.064;2023-04-06T13:11:40;14.40;1.00
12053;DHT22;6087;48.982;12.064;2023-04-06T13:14:07;14.50;1.00
12053;DHT22;6087;48.982;12.064;2023-04-06T13:16:34;14.60;1.00
12053;DHT22;6087;48.982;12.064;2023-04-06T13:19:01;14.70;1.00
12053;DHT22;6087;48.982;12.064;2023-04-06T13:21:28;14.80;1.00
12053;DHT22;6087;48.982;12.064;2023-04-06T13:23:55;14.80;1.00
12053;DHT22;6087;48.982;12.064;2023-04-06T13:26:24;14.90;1.00
12053;DHT22;6087;48.982;12.064;2023-04-06T13:28:51;15.00;1.00
12053;DHT22;6087;48.982;12.064;2023-04-06T13:31:18;15.00;1.00
12053;DHT22;6087;48.982;12.064;2023-04-06T13:33:45;15.00;1.00
12053;DHT22;6087;48.982;12.064;2023-04-06T13:36:12;15.10;1.00
12053;DHT22;6087;48.982;12.064;2023-04-06T13:38:39;15.10;1.00
12053;DHT22;6087;48.982;12.064;2023-04-06T13:41:06;15.10;1.00
12053;DHT22;6087;48.982;12.064;2023-04-06T13:43:35;15.10;1.00
12053;DHT22;6087;48.982;12.064;2023-04-06T13:46:02;14.90;1.00
12053;DHT22;6087;48.982;12.064;2023-04-06T13:48:29;15.00;1.00
12053;DHT22;6087;48.982;12.064;2023-04-06T13:50:57;14.80;1.00
12053;DHT22;6087;48.982;12.064;2023-04-06T13:53:24;14.50;1.00
12053;DHT22;6087;48.982;12.064;2023-04-06T13:55:54;14.50;1.00
12053;DHT22;6087;48.982;12.064;2023-04-06T13:58:21;14.20;1.00
12053;DHT22;6087;48.982;12.064;2023-04-06T14:00:49;14.30;1.00
12053;DHT22;6087;48.982;12.064;2023-04-06T14:03:16;14.10;1.00
12053;DHT22;6087;48.982;12.064;2023-04-06T14:05:44;14.00;1.00
12053;DHT22;6087;48.982;12.064;2023-04-06T14:08:11;13.90;1.00
12053;DHT22;6087;48.982;12.064;2023-04-06T14:10:38;14.00;1.00
12053;DHT22;6087;48.982;12.064;2023-04-06T14:13:06;13.90;1.00
12053;DHT22;6087;48.982;12.064;2023-04-06T14:15:33;14.10;1.00
12053;DHT22;6087;48.982;12.064;2023-04-06T14:18:02;14.20;1.00
12053;DHT22;6087;48.982;12.064;2023-04-06T14:20:31;14.30;1.00
12053;DHT22;6087;48.982;12.064;2023-04-06T14:22:59;14.40;1.00
12053;DHT22;6087;48.982;12.064;2023-04-06T14:25:26;14.40;1.00
12053;DHT22;6087;48.982;12.064;2023-04-06T14:27:53;14.20;1.00
12053;DHT22;6087;48.982;12.064;2023-04-06T14:30:20;14.00;1.00
12053;DHT22;6087;48.982;12.064;2023-04-06T14:32:47;13.90;1.00
12053;DHT22;6087;48.982;12.064;2023-04-06T14:35:15;13.70;1.00
12053;DHT22;6087;48.982;12.064;2023-04-06T14:37:42;13.70;1.00
12053;DHT22;6087;48.982;12.064;2023-04-06T14:40:10;13.90;1.00
12053;DHT22;6087;48.982;12.064;2023-04-06T14:42:40;13.70;1.00
12053;DHT22;6087;48.982;12.064;2023-04-06T14:45:07;13.50;1.00
12053;DHT22;6087;48.982;12.064;2023-04-06T14:47:34;13.40;1.00
12053;DHT22;6087;48.982;12.064;2023-04-06T14:50:01;13.30;1.00
12053;DHT22;6087;48.982;12.064;2023-04-06T14:52:30;13.30;1.00
12053;DHT22;6087;48.982;12.064;2023-04-06T14:54:57;13.50;1.00
12053;DHT22;6087;48.982;12.064;2023-04-06T14:57:24;13.40;1.00
12053;DHT22;6087;48.982;12.064;2023-04-06T15:00:01;13.20;1.00
12053;DHT22;6087;48.982;12.064;2023-04-06T15:02:28;13.10;1.00
12053;DHT22;6087;48.982;12.064;2023-04-06T15:04:57;13.20;1.00
12053;DHT22;6087;48.982;12.064;2023-04-06T15:07:27;13.30;1.00
12053;DHT22;6087;48.982;12.064;2023-04-06T15:09:55;13.40;1.00
12053;DHT22;6087;48.982;12.064;2023-04-06T15:12:22;13.10;1.00
12053;DHT22;6087;48.982;12.064;2023-04-06T15:14:49;13.00;1.00
12053;DHT22;6087;48.982;12.064;2023-04-06T15:17:16;13.00;1.00
12053;DHT22;6087;48.982;12.064;2023-04-06T15:19:42;13.00;1.00
12053;DHT22;6087;48.982;12.064;2023-04-06T15:22:12;13.00;1.00
12053;DHT22;6087;48.982;12.064;2023-04-06T15:24:39;13.00;1.00
12053;DHT22;6087;48.982;12.064;2023-04-06T15:27:07;13.00;1.00
12053;DHT22;6087;48.982;12.064;2023-04-06T15:29:34;13.00;1.00
12053;DHT22;6087;48.982;12.064;2023-04-06T15:32:01;13.00;1.00
12053;DHT22;6087;48.982;12.064;2023-04-06T15:34:30;13.00;1.00
12053;DHT22;6087;48.982;12.064;2023-04-06T15:37:00;13.00;1.00
12053;DHT22;6087;48.982;12.064;2023-04-06T15:39:29;13.00;1.00
12053;DHT22;6087;48.982;12.064;2023-04-06T15:41:56;12.90;1.00
12053;DHT22;6087;48.982;12.064;2023-04-06T15:44:24;12.90;1.00
12053;DHT22;6087;48.982;12.064;2023-04-06T15:46:51;12.90;1.00
12053;DHT22;6087;48.982;12.064;2023-04-06T15:49:18;12.80;1.00
12053;DHT22;6087;48.982;12.064;2023-04-06T15:51:46;12.70;1.00
12053;DHT22;6087;48.982;12.064;2023-04-06T15:54:13;12.60;1.00
12053;DHT22;6087;48.982;12.064;2023-04-06T15:56:40;12.60;1.00
12053;DHT22;6087;48.982;12.064;2023-04-06T15:59:07;12.50;1.00
12053;DHT22;6087;48.982;12.064;2023-04-06T16:01:35;12.50;1.00
12053;DHT22;6087;48.982;12.064;2023-04-06T16:04:06;12.40;1.00